RJSO(METAR)
04/28 17:00
METAR RJSO 280800Z 24013G23KT 220V280 9999 SCT030 BKN230 13/03 Q1004
RMK 3CU030 A2966=
戻る
トップページへ戻る
IMOC Co,.Ltd.